Time;durP1;ratioP1;P1;durP2;ratioP2;P2;SDS_P1;SDS_P2;PMS_P1;PMS_P2;Temp;Humidity;BMP_temperature;BMP_pressure;BME280_temperature;BME280_humidity;BME280_pressure;Samples;Min_cycle;Max_cycle;Signal;HPM_P1;HPM_P2
2021/08/20 00:00:46;;;;;;;11.30;10.05;;;;;;;;;;4972657;28;20184;-56
2021/08/20 00:03:11;;;;;;;14.15;10.60;;;;;;;;;;4973300;28;20616;-55
2021/08/20 00:05:36;;;;;;;12.77;10.90;;;;;;;;;;4977863;28;20238;-57
2021/08/20 00:08:02;;;;;;;13.65;10.93;;;;;;;;;;4986369;28;20173;-55
2021/08/20 00:10:27;;;;;;;14.30;10.98;;;;;;;;;;4985397;28;20639;-56
2021/08/20 00:12:52;;;;;;;12.82;10.70;;;;;;;;;;4984634;28;20615;-55
2021/08/20 00:15:17;;;;;;;15.05;10.75;;;;;;;;;;4993730;28;20164;-55
2021/08/20 00:17:43;;;;;;;13.70;12.07;;;;;;;;;;4987623;28;20587;-55
2021/08/20 00:20:08;;;;;;;12.18;11.00;;;;;;;;;;4989490;28;20260;-55
2021/08/20 00:22:33;;;;;;;12.77;11.30;;;;;;;;;;4990821;28;20203;-56
2021/08/20 00:24:59;;;;;;;13.02;11.02;;;;;;;;;;4988044;28;20649;-55
2021/08/20 00:27:24;;;;;;;13.00;11.57;;;;;;;;;;4989290;28;20219;-56
2021/08/20 00:29:49;;;;;;;12.40;11.15;;;;;;;;;;4983101;28;20184;-56
2021/08/20 00:32:14;;;;;;;13.48;12.07;;;;;;;;;;4991771;28;20682;-55
2021/08/20 00:34:39;;;;;;;14.88;13.27;;;;;;;;;;4992743;28;20180;-55
2021/08/20 00:37:05;;;;;;;15.43;12.48;;;;;;;;;;4981101;28;20263;-55
2021/08/20 00:39:30;;;;;;;14.98;13.48;;;;;;;;;;4984630;28;20179;-55
2021/08/20 00:41:55;;;;;;;13.88;12.45;;;;;;;;;;4981667;28;20267;-56
2021/08/20 00:44:20;;;;;;;15.93;14.20;;;;;;;;;;4989729;28;20593;-55
2021/08/20 00:46:46;;;;;;;14.98;13.48;;;;;;;;;;4991764;28;20695;-56
2021/08/20 00:49:11;;;;;;;15.93;14.40;;;;;;;;;;4978997;28;20173;-56
2021/08/20 00:51:37;;;;;;;15.93;14.00;;;;;;;;;;4982876;28;20188;-56
2021/08/20 00:54:03;;;;;;;16.08;14.02;;;;;;;;;;4983811;28;20207;-55
2021/08/20 00:56:28;;;;;;;16.75;14.68;;;;;;;;;;4980105;28;20180;-56
2021/08/20 00:58:54;;;;;;;18.08;15.70;;;;;;;;;;4987814;28;20653;-56
2021/08/20 01:01:20;;;;;;;16.65;14.73;;;;;;;;;;4973979;28;20173;-55
2021/08/20 01:03:45;;;;;;;17.10;15.48;;;;;;;;;;4992500;28;20200;-55
2021/08/20 01:06:10;;;;;;;17.20;15.48;;;;;;;;;;5000204;28;20211;-56
2021/08/20 01:08:36;;;;;;;18.05;16.25;;;;;;;;;;4985499;28;20204;-55
2021/08/20 01:11:03;;;;;;;17.80;15.07;;;;;;;;;;4976788;28;20165;-56
2021/08/20 01:13:35;;;;;;;18.10;15.02;;;;;;;;;;4986962;28;20214;-54
2021/08/20 01:16:01;;;;;;;18.42;16.60;;;;;;;;;;4991229;28;20181;-54
2021/08/20 01:18:27;;;;;;;18.98;16.05;;;;;;;;;;4981180;28;20181;-56
2021/08/20 01:20:53;;;;;;;16.88;15.13;;;;;;;;;;4982443;28;20678;-56
2021/08/20 01:23:18;;;;;;;17.90;16.00;;;;;;;;;;4986044;28;20214;-56
2021/08/20 01:25:44;;;;;;;16.65;15.05;;;;;;;;;;4985201;28;20678;-56
2021/08/20 01:28:09;;;;;;;17.30;15.27;;;;;;;;;;4986962;28;20554;-56
2021/08/20 01:30:35;;;;;;;18.67;16.20;;;;;;;;;;4987121;28;20222;-55
2021/08/20 01:33:00;;;;;;;17.60;15.50;;;;;;;;;;4992290;28;20223;-55
2021/08/20 01:35:25;;;;;;;17.13;15.32;;;;;;;;;;4994651;28;20651;-54
2021/08/20 01:37:50;;;;;;;19.10;17.08;;;;;;;;;;4992032;28;20563;-56
2021/08/20 01:40:15;;;;;;;19.27;17.38;;;;;;;;;;4980640;28;20636;-55
2021/08/20 01:42:41;;;;;;;17.48;15.73;;;;;;;;;;4973201;28;20200;-56
2021/08/20 01:45:06;;;;;;;17.80;15.95;;;;;;;;;;4989794;28;20199;-55
2021/08/20 01:47:31;;;;;;;19.13;16.13;;;;;;;;;;4991789;28;20314;-55
2021/08/20 01:49:56;;;;;;;19.67;15.73;;;;;;;;;;4990696;28;20664;-55
2021/08/20 01:52:22;;;;;;;19.10;17.20;;;;;;;;;;4992695;28;20212;-55
2021/08/20 01:54:47;;;;;;;17.73;15.55;;;;;;;;;;4982375;28;20180;-55
2021/08/20 01:57:12;;;;;;;20.50;15.45;;;;;;;;;;4975987;28;20180;-57
2021/08/20 01:59:38;;;;;;;19.15;16.25;;;;;;;;;;4980234;28;20176;-56
2021/08/20 02:02:03;;;;;;;17.33;15.55;;;;;;;;;;4991543;28;20632;-55
2021/08/20 02:04:28;;;;;;;18.88;15.57;;;;;;;;;;4991772;28;20636;-55
2021/08/20 02:06:53;;;;;;;16.88;15.27;;;;;;;;;;4990132;28;20559;-55
2021/08/20 02:09:19;;;;;;;17.48;15.30;;;;;;;;;;4980951;28;20200;-53
2021/08/20 02:11:44;;;;;;;18.17;15.63;;;;;;;;;;4974595;28;20243;-55
2021/08/20 02:14:09;;;;;;;20.42;16.05;;;;;;;;;;4989870;28;20220;-56
2021/08/20 02:16:34;;;;;;;18.42;16.52;;;;;;;;;;4989717;28;20206;-54
2021/08/20 02:19:00;;;;;;;18.77;15.50;;;;;;;;;;4983203;28;20199;-54
2021/08/20 02:21:25;;;;;;;17.30;15.18;;;;;;;;;;4974452;28;20260;-55
2021/08/20 02:23:50;;;;;;;16.85;15.05;;;;;;;;;;4979696;28;20208;-54
2021/08/20 02:26:15;;;;;;;17.05;15.05;;;;;;;;;;4979144;28;20495;-56
2021/08/20 02:28:40;;;;;;;15.63;14.02;;;;;;;;;;4981883;28;20176;-56
2021/08/20 02:31:06;;;;;;;16.80;14.13;;;;;;;;;;4982558;28;20639;-56
2021/08/20 02:33:33;;;;;;;19.38;15.05;;;;;;;;;;4989784;28;20802;-54
2021/08/20 02:36:02;;;;;;;17.83;14.30;;;;;;;;;;4990644;28;20183;-56
2021/08/20 02:38:27;;;;;;;19.58;15.15;;;;;;;;;;4983530;28;20705;-55
2021/08/20 02:40:52;;;;;;;16.70;14.82;;;;;;;;;;4981257;28;20211;-55
2021/08/20 02:43:17;;;;;;;15.23;13.63;;;;;;;;;;4988853;28;20225;-55
2021/08/20 02:45:43;;;;;;;17.75;15.00;;;;;;;;;;4982799;28;20628;-56
2021/08/20 02:48:08;;;;;;;15.93;14.32;;;;;;;;;;4989957;28;20294;-56
2021/08/20 02:50:34;;;;;;;17.75;13.98;;;;;;;;;;4964574;28;20660;-56
2021/08/20 02:52:59;;;;;;;15.13;13.52;;;;;;;;;;4974343;28;20200;-56
2021/08/20 02:55:25;;;;;;;16.08;14.23;;;;;;;;;;4968097;28;20181;-55
2021/08/20 02:57:50;;;;;;;16.60;13.85;;;;;;;;;;4970166;28;20786;-56
2021/08/20 03:00:15;;;;;;;15.57;13.53;;;;;;;;;;4968668;28;20183;-57
2021/08/20 03:02:40;;;;;;;16.52;14.73;;;;;;;;;;4969243;28;20495;-56
2021/08/20 03:05:06;;;;;;;15.10;13.55;;;;;;;;;;4970040;28;20176;-56
2021/08/20 03:07:31;;;;;;;17.27;13.50;;;;;;;;;;4992000;28;20603;-56
2021/08/20 03:09:56;;;;;;;15.43;13.82;;;;;;;;;;4974050;28;20553;-56
2021/08/20 03:12:22;;;;;;;14.57;13.07;;;;;;;;;;4988601;28;20236;-55
2021/08/20 03:14:47;;;;;;;15.02;13.43;;;;;;;;;;4982197;28;20247;-55
2021/08/20 03:17:12;;;;;;;18.98;14.25;;;;;;;;;;4989831;28;20648;-57
2021/08/20 03:19:37;;;;;;;17.33;14.35;;;;;;;;;;4971384;28;20241;-55
2021/08/20 03:22:03;;;;;;;15.52;13.27;;;;;;;;;;4981787;28;20188;-56
2021/08/20 03:24:28;;;;;;;14.93;13.15;;;;;;;;;;4976572;28;20177;-56
2021/08/20 03:26:53;;;;;;;15.77;13.20;;;;;;;;;;4991591;28;20203;-55
2021/08/20 03:29:18;;;;;;;15.57;12.88;;;;;;;;;;4985235;28;20176;-54
2021/08/20 03:31:43;;;;;;;16.48;13.35;;;;;;;;;;4977390;28;20181;-55
2021/08/20 03:34:09;;;;;;;17.75;13.38;;;;;;;;;;4974845;28;20467;-55
2021/08/20 03:36:34;;;;;;;14.40;12.65;;;;;;;;;;4982552;28;20195;-56
2021/08/20 03:38:59;;;;;;;16.17;12.98;;;;;;;;;;4985525;28;20263;-56
2021/08/20 03:41:24;;;;;;;15.10;13.50;;;;;;;;;;4987465;28;20589;-55
2021/08/20 03:43:49;;;;;;;15.77;13.23;;;;;;;;;;4978989;28;20204;-56
2021/08/20 03:46:15;;;;;;;18.17;13.45;;;;;;;;;;4974724;28;20205;-56
2021/08/20 03:48:44;;;;;;;15.30;12.77;;;;;;;;;;4974626;28;20180;-56
2021/08/20 03:51:10;;;;;;;15.55;13.13;;;;;;;;;;4974195;28;20180;-56
2021/08/20 03:53:35;;;;;;;16.63;13.40;;;;;;;;;;4993576;28;20192;-56
2021/08/20 03:56:00;;;;;;;17.63;13.40;;;;;;;;;;4989716;28;20210;-55
2021/08/20 03:58:26;;;;;;;15.77;13.10;;;;;;;;;;4990841;28;20227;-56
2021/08/20 04:00:52;;;;;;;14.80;12.32;;;;;;;;;;4985078;28;20187;-55
2021/08/20 04:03:18;;;;;;;14.00;12.23;;;;;;;;;;4988694;28;20196;-54
2021/08/20 04:05:43;;;;;;;13.95;12.45;;;;;;;;;;4991980;28;20176;-55
2021/08/20 04:08:08;;;;;;;17.83;13.18;;;;;;;;;;4988349;28;20172;-56
2021/08/20 04:10:33;;;;;;;15.70;12.10;;;;;;;;;;4990574;28;20168;-56
2021/08/20 04:12:58;;;;;;;16.67;13.13;;;;;;;;;;4980202;28;20700;-56
2021/08/20 04:15:23;;;;;;;15.10;12.73;;;;;;;;;;4988649;28;20216;-55
2021/08/20 04:17:49;;;;;;;15.95;12.70;;;;;;;;;;4977546;28;20256;-55
2021/08/20 04:20:14;;;;;;;15.17;12.57;;;;;;;;;;4972885;28;20188;-55
2021/08/20 04:22:41;;;;;;;15.10;12.48;;;;;;;;;;4985633;28;20439;-56
2021/08/20 04:25:06;;;;;;;15.20;12.18;;;;;;;;;;4989292;28;20187;-56
2021/08/20 04:27:31;;;;;;;16.13;12.68;;;;;;;;;;4979514;28;20212;-57
2021/08/20 04:29:56;;;;;;;14.93;12.88;;;;;;;;;;4978906;28;20168;-56
2021/08/20 04:32:22;;;;;;;14.93;12.40;;;;;;;;;;4989855;28;20214;-55
2021/08/20 04:34:47;;;;;;;16.98;12.25;;;;;;;;;;4993312;28;20198;-55
2021/08/20 04:37:12;;;;;;;14.13;12.52;;;;;;;;;;4990560;28;20196;-56
2021/08/20 04:39:37;;;;;;;17.10;13.25;;;;;;;;;;4984474;28;20531;-54
2021/08/20 04:42:03;;;;;;;15.93;12.85;;;;;;;;;;4982973;28;20176;-55
2021/08/20 04:44:28;;;;;;;15.38;12.43;;;;;;;;;;4984518;28;20187;-55
2021/08/20 04:46:53;;;;;;;15.70;12.30;;;;;;;;;;4984894;28;20266;-55
2021/08/20 04:49:18;;;;;;;14.88;12.10;;;;;;;;;;4985887;28;20443;-56
2021/08/20 04:51:44;;;;;;;16.05;12.82;;;;;;;;;;4991549;28;20632;-55
2021/08/20 04:54:09;;;;;;;16.13;12.57;;;;;;;;;;4996064;28;20243;-56
2021/08/20 04:56:34;;;;;;;14.07;12.43;;;;;;;;;;4986294;28;20253;-56
2021/08/20 04:58:59;;;;;;;14.88;12.00;;;;;;;;;;4988055;28;20202;-56
2021/08/20 05:01:24;;;;;;;18.15;13.10;;;;;;;;;;4977359;28;20283;-56
2021/08/20 05:03:50;;;;;;;15.20;12.10;;;;;;;;;;4988628;28;20222;-55
2021/08/20 05:06:15;;;;;;;15.85;12.93;;;;;;;;;;4992964;28;20739;-55
2021/08/20 05:08:40;;;;;;;15.00;12.13;;;;;;;;;;4995202;28;20200;-54
2021/08/20 05:11:06;;;;;;;15.55;12.35;;;;;;;;;;4981800;28;20187;-56
2021/08/20 05:13:32;;;;;;;18.25;13.68;;;;;;;;;;4991881;28;20211;-55
2021/08/20 05:15:57;;;;;;;16.27;12.00;;;;;;;;;;4984254;28;20259;-55
2021/08/20 05:18:22;;;;;;;15.15;12.45;;;;;;;;;;4975267;28;20260;-54
2021/08/20 05:20:48;;;;;;;17.25;12.40;;;;;;;;;;4975724;28;20678;-56
2021/08/20 05:23:13;;;;;;;14.10;12.38;;;;;;;;;;4991043;28;20537;-56
2021/08/20 05:25:38;;;;;;;13.98;12.02;;;;;;;;;;4990487;28;20191;-56
2021/08/20 05:28:04;;;;;;;17.80;13.07;;;;;;;;;;4986518;28;20180;-56
2021/08/20 05:30:30;;;;;;;15.63;12.43;;;;;;;;;;4987451;28;20536;-56
2021/08/20 05:32:55;;;;;;;17.90;12.82;;;;;;;;;;4989409;28;20208;-55
2021/08/20 05:35:20;;;;;;;14.95;12.10;;;;;;;;;;4990717;28;20590;-56
2021/08/20 05:37:45;;;;;;;17.52;12.68;;;;;;;;;;4990962;28;20585;-55
2021/08/20 05:40:11;;;;;;;16.10;13.02;;;;;;;;;;4988164;28;20179;-55
2021/08/20 05:42:37;;;;;;;17.13;12.45;;;;;;;;;;4986354;28;20203;-56
2021/08/20 05:45:02;;;;;;;16.90;12.85;;;;;;;;;;4987779;28;20587;-56
2021/08/20 05:47:27;;;;;;;18.98;12.45;;;;;;;;;;4979067;28;20199;-56
2021/08/20 05:49:53;;;;;;;15.52;11.88;;;;;;;;;;4973443;28;20169;-56
2021/08/20 05:52:18;;;;;;;14.73;12.05;;;;;;;;;;4973112;28;20224;-56
2021/08/20 05:54:43;;;;;;;16.23;12.45;;;;;;;;;;4991428;28;20267;-55
2021/08/20 05:57:08;;;;;;;15.40;11.40;;;;;;;;;;4983359;28;20204;-55
2021/08/20 05:59:33;;;;;;;15.13;11.75;;;;;;;;;;4990966;28;20645;-55
2021/08/20 06:01:59;;;;;;;19.58;12.00;;;;;;;;;;4983847;28;20244;-55
2021/08/20 06:04:24;;;;;;;15.48;11.45;;;;;;;;;;4987070;28;20664;-55
2021/08/20 06:06:49;;;;;;;15.60;11.57;;;;;;;;;;4992411;28;20215;-55
2021/08/20 06:09:15;;;;;;;14.02;11.57;;;;;;;;;;4972140;28;20246;-56
2021/08/20 06:11:40;;;;;;;14.77;11.80;;;;;;;;;;4978871;28;20215;-55
2021/08/20 06:14:05;;;;;;;12.50;10.88;;;;;;;;;;4973766;28;20303;-56
2021/08/20 06:16:30;;;;;;;13.77;11.50;;;;;;;;;;4984832;28;20231;-56
2021/08/20 06:18:55;;;;;;;15.48;11.25;;;;;;;;;;4988984;28;20207;-56
2021/08/20 06:21:21;;;;;;;15.70;11.73;;;;;;;;;;4991077;28;20168;-56
2021/08/20 06:23:46;;;;;;;16.88;11.90;;;;;;;;;;4981664;28;20201;-56
2021/08/20 06:26:11;;;;;;;14.57;11.95;;;;;;;;;;4981865;28;20208;-56
2021/08/20 06:28:36;;;;;;;16.23;11.50;;;;;;;;;;4976992;28;20179;-54
2021/08/20 06:31:04;;;;;;;15.70;12.25;;;;;;;;;;4976100;28;20173;-56
2021/08/20 06:33:31;;;;;;;19.23;12.25;;;;;;;;;;4985548;28;20621;-56
2021/08/20 06:35:56;;;;;;;17.05;11.70;;;;;;;;;;4990559;28;20171;-56
2021/08/20 06:38:21;;;;;;;24.30;11.30;;;;;;;;;;4986308;28;20165;-56
2021/08/20 06:40:46;;;;;;;11.82;10.60;;;;;;;;;;4978787;28;20562;-55
2021/08/20 06:43:11;;;;;;;16.23;10.82;;;;;;;;;;4979461;28;20232;-55
2021/08/20 06:45:36;;;;;;;15.98;10.50;;;;;;;;;;4982651;28;20187;-57
2021/08/20 06:48:02;;;;;;;11.75;10.13;;;;;;;;;;4982715;28;20176;-55
2021/08/20 06:50:27;;;;;;;14.80;10.73;;;;;;;;;;4969628;28;20413;-55
2021/08/20 06:52:52;;;;;;;13.65;9.95;;;;;;;;;;4983519;28;20207;-56
2021/08/20 06:55:19;;;;;;;10.82;9.00;;;;;;;;;;4989049;28;20244;-56
2021/08/20 06:57:45;;;;;;;14.18;9.05;;;;;;;;;;4990047;28;20227;-56
2021/08/20 07:00:10;;;;;;;12.52;9.98;;;;;;;;;;4980714;28;20208;-57
2021/08/20 07:02:42;;;;;;;14.82;9.30;;;;;;;;;;4969649;28;20591;-56
2021/08/20 07:05:08;;;;;;;13.30;9.68;;;;;;;;;;4968808;28;20831;-55
2021/08/20 07:07:34;;;;;;;10.77;9.23;;;;;;;;;;4968606;28;20216;-56
2021/08/20 07:09:59;;;;;;;10.70;9.18;;;;;;;;;;4970353;28;20288;-55
2021/08/20 07:12:24;;;;;;;13.82;9.05;;;;;;;;;;4967818;28;20216;-57
2021/08/20 07:14:49;;;;;;;11.45;9.00;;;;;;;;;;4975018;28;20307;-55
2021/08/20 07:17:14;;;;;;;11.33;9.17;;;;;;;;;;4987103;28;20183;-56
2021/08/20 07:19:39;;;;;;;10.50;9.47;;;;;;;;;;4988552;28;20420;-56
2021/08/20 07:22:05;;;;;;;12.43;9.40;;;;;;;;;;4987999;28;20939;-56
2021/08/20 07:24:30;;;;;;;11.52;9.60;;;;;;;;;;4994669;28;20274;-56
2021/08/20 07:26:55;;;;;;;13.98;9.32;;;;;;;;;;4988387;28;20208;-56
2021/08/20 07:29:20;;;;;;;12.52;10.43;;;;;;;;;;4988338;28;20176;-56
2021/08/20 07:31:45;;;;;;;16.30;10.18;;;;;;;;;;4983586;28;20180;-55
2021/08/20 07:34:11;;;;;;;13.07;10.80;;;;;;;;;;4989194;28;20191;-55
2021/08/20 07:36:37;;;;;;;17.90;11.83;;;;;;;;;;4983628;28;20169;-54
2021/08/20 07:39:02;;;;;;;13.13;11.55;;;;;;;;;;4987033;28;20431;-56
2021/08/20 07:41:27;;;;;;;14.18;10.75;;;;;;;;;;4989193;28;20664;-55
2021/08/20 07:43:52;;;;;;;16.58;11.10;;;;;;;;;;4987887;28;20688;-56
2021/08/20 07:46:17;;;;;;;13.20;11.23;;;;;;;;;;4982560;28;20251;-55
2021/08/20 07:48:43;;;;;;;14.90;11.18;;;;;;;;;;4986746;28;20431;-56
2021/08/20 07:51:08;;;;;;;13.48;11.48;;;;;;;;;;4986709;28;20213;-55
2021/08/20 07:53:33;;;;;;;15.47;11.20;;;;;;;;;;4987969;28;20207;-57
2021/08/20 07:55:59;;;;;;;15.38;10.23;;;;;;;;;;4989269;28;20434;-56
2021/08/20 07:58:24;;;;;;;12.40;11.10;;;;;;;;;;4988724;28;20164;-56
2021/08/20 08:00:49;;;;;;;14.02;11.23;;;;;;;;;;4988884;28;20551;-56
2021/08/20 08:03:14;;;;;;;15.00;12.80;;;;;;;;;;4977510;28;20239;-56
2021/08/20 08:05:39;;;;;;;15.15;12.38;;;;;;;;;;4988863;28;20796;-56
2021/08/20 08:08:05;;;;;;;14.88;13.05;;;;;;;;;;4991426;28;20211;-57
2021/08/20 08:10:30;;;;;;;18.33;14.13;;;;;;;;;;4992636;28;20175;-55
2021/08/20 08:12:55;;;;;;;15.35;13.73;;;;;;;;;;4990103;28;20204;-56
2021/08/20 08:15:21;;;;;;;14.95;13.07;;;;;;;;;;4991495;28;20274;-56
2021/08/20 08:17:46;;;;;;;13.60;12.23;;;;;;;;;;4985206;28;20180;-56
2021/08/20 08:20:13;;;;;;;14.60;11.82;;;;;;;;;;4991145;28;20172;-55
2021/08/20 08:22:38;;;;;;;15.95;13.13;;;;;;;;;;4986352;28;20262;-56
2021/08/20 08:25:04;;;;;;;13.77;11.70;;;;;;;;;;4986871;28;20188;-56
2021/08/20 08:27:29;;;;;;;14.27;11.77;;;;;;;;;;4992971;28;20343;-56
2021/08/20 08:29:54;;;;;;;12.27;10.93;;;;;;;;;;4979180;28;20259;-56
2021/08/20 08:32:19;;;;;;;14.03;11.53;;;;;;;;;;5002450;28;20456;-56
2021/08/20 08:34:45;;;;;;;13.23;10.73;;;;;;;;;;4988993;28;20482;-56
2021/08/20 08:37:12;;;;;;;20.80;12.15;;;;;;;;;;4992581;28;20403;-56
2021/08/20 08:39:37;;;;;;;13.95;10.15;;;;;;;;;;4992414;28;20180;-55
2021/08/20 08:42:02;;;;;;;12.52;10.38;;;;;;;;;;4979247;28;20239;-55
2021/08/20 08:44:28;;;;;;;12.77;10.57;;;;;;;;;;4978678;28;20172;-54
2021/08/20 08:46:54;;;;;;;12.98;10.25;;;;;;;;;;4991636;28;20212;-56
2021/08/20 08:49:21;;;;;;;12.13;9.70;;;;;;;;;;4979754;28;20180;-55
2021/08/20 08:51:46;;;;;;;10.82;9.68;;;;;;;;;;4986370;28;20234;-55
2021/08/20 08:54:13;;;;;;;10.85;9.85;;;;;;;;;;4993292;28;20202;-56
2021/08/20 08:56:40;;;;;;;11.95;9.63;;;;;;;;;;4989720;28;20184;-56
2021/08/20 08:59:06;;;;;;;13.27;9.25;;;;;;;;;;4988338;28;20219;-56
2021/08/20 09:01:37;;;;;;;10.63;9.13;;;;;;;;;;4990766;28;20618;-55
2021/08/20 09:04:08;;;;;;;11.52;9.07;;;;;;;;;;4989433;28;20463;-57
2021/08/20 09:06:37;;;;;;;10.25;8.25;;;;;;;;;;4989055;28;20291;-56
2021/08/20 09:09:07;;;;;;;11.02;9.93;;;;;;;;;;4990295;28;20180;-56
2021/08/20 09:11:32;;;;;;;10.38;9.15;;;;;;;;;;5003783;28;20271;-58
2021/08/20 09:13:58;;;;;;;9.73;8.65;;;;;;;;;;4988181;28;20290;-58
2021/08/20 09:16:32;;;;;;;10.98;8.82;;;;;;;;;;4990203;28;20251;-56
2021/08/20 09:19:08;;;;;;;13.63;10.02;;;;;;;;;;4990678;28;20691;-57
2021/08/20 09:21:33;;;;;;;10.82;9.82;;;;;;;;;;4991788;28;20182;-55
2021/08/20 09:23:58;;;;;;;13.32;11.00;;;;;;;;;;4991528;28;20200;-57
2021/08/20 09:26:24;;;;;;;18.07;10.83;;;;;;;;;;4992900;28;20215;-55
2021/08/20 09:28:49;;;;;;;12.73;11.52;;;;;;;;;;4988040;28;21077;-56
2021/08/20 09:31:14;;;;;;;12.20;10.50;;;;;;;;;;4990490;28;20176;-56
2021/08/20 09:33:42;;;;;;;12.23;9.88;;;;;;;;;;4990802;28;20184;-54
2021/08/20 09:36:09;;;;;;;12.88;10.18;;;;;;;;;;4991218;28;20173;-56
2021/08/20 09:38:38;;;;;;;10.07;9.10;;;;;;;;;;4986043;28;20794;-55
2021/08/20 09:41:07;;;;;;;11.90;9.30;;;;;;;;;;4990125;28;20736;-57
2021/08/20 09:43:34;;;;;;;17.20;9.23;;;;;;;;;;4991203;28;20227;-56
2021/08/20 09:46:09;;;;;;;11.98;9.10;;;;;;;;;;4990881;28;20175;-56
2021/08/20 09:48:38;;;;;;;8.75;7.40;;;;;;;;;;4985236;28;20156;-57
2021/08/20 09:51:03;;;;;;;11.25;9.18;;;;;;;;;;4970750;28;20271;-55
2021/08/20 09:53:28;;;;;;;15.33;9.50;;;;;;;;;;4985920;28;20868;-55
2021/08/20 09:55:54;;;;;;;12.00;9.73;;;;;;;;;;4990200;28;20438;-56
2021/08/20 09:58:19;;;;;;;10.25;9.23;;;;;;;;;;4988906;28;20664;-55
2021/08/20 10:00:45;;;;;;;10.32;9.15;;;;;;;;;;4989744;28;20652;-57
2021/08/20 10:03:12;;;;;;;13.75;9.60;;;;;;;;;;4984184;28;20238;-55
2021/08/20 10:05:38;;;;;;;11.65;9.82;;;;;;;;;;4989894;28;20713;-57
2021/08/20 10:08:04;;;;;;;12.98;9.63;;;;;;;;;;4989201;28;20243;-57
2021/08/20 10:10:30;;;;;;;9.50;8.00;;;;;;;;;;4986256;28;20676;-55
2021/08/20 10:12:56;;;;;;;10.07;8.88;;;;;;;;;;4988314;28;20243;-56
2021/08/20 10:15:21;;;;;;;13.52;9.07;;;;;;;;;;4988672;28;20650;-56
2021/08/20 10:17:46;;;;;;;12.75;9.45;;;;;;;;;;4981456;28;20319;-58
2021/08/20 10:20:13;;;;;;;10.77;8.80;;;;;;;;;;4979342;28;20204;-56
2021/08/20 10:22:39;;;;;;;11.88;9.75;;;;;;;;;;4987349;28;20199;-57
2021/08/20 10:25:06;;;;;;;13.18;9.45;;;;;;;;;;4990221;28;20183;-56
2021/08/20 10:27:32;;;;;;;11.18;8.02;;;;;;;;;;4975334;28;20205;-57
2021/08/20 10:29:58;;;;;;;11.88;8.48;;;;;;;;;;4986266;28;20204;-57
2021/08/20 10:32:23;;;;;;;21.33;9.95;;;;;;;;;;4989200;28;20285;-57
2021/08/20 10:34:48;;;;;;;13.93;9.23;;;;;;;;;;4990119;28;20643;-57
2021/08/20 10:37:15;;;;;;;8.77;7.87;;;;;;;;;;4990889;28;20222;-57
2021/08/20 10:39:41;;;;;;;11.43;8.50;;;;;;;;;;4981557;28;20502;-58
2021/08/20 10:42:07;;;;;;;11.95;7.97;;;;;;;;;;4984206;28;20249;-57
2021/08/20 10:44:33;;;;;;;10.23;9.25;;;;;;;;;;4985426;28;20285;-57
2021/08/20 10:46:59;;;;;;;13.45;10.77;;;;;;;;;;4987798;28;20366;-57
2021/08/20 10:49:25;;;;;;;11.68;10.48;;;;;;;;;;4977753;28;20183;-57
2021/08/20 10:51:53;;;;;;;13.80;11.30;;;;;;;;;;4986252;28;20182;-58
2021/08/20 10:54:41;;;;;;;10.98;9.88;;;;;;;;;;4987835;28;20565;-57
2021/08/20 10:57:29;;;;;;;11.15;9.60;;;;;;;;;;4991303;28;20255;-59
2021/08/20 10:59:55;;;;;;;12.77;9.25;;;;;;;;;;4980738;28;20259;-57
2021/08/20 11:02:21;;;;;;;10.90;8.68;;;;;;;;;;4986419;28;20215;-56
2021/08/20 11:05:04;;;;;;;9.40;8.40;;;;;;;;;;4988530;28;20172;-56
2021/08/20 11:07:33;;;;;;;11.88;9.85;;;;;;;;;;4986606;28;20203;-57
2021/08/20 11:09:58;;;;;;;9.63;8.70;;;;;;;;;;4986196;28;20210;-57
2021/08/20 11:12:42;;;;;;;12.17;9.77;;;;;;;;;;4990924;28;20798;-56
2021/08/20 11:15:16;;;;;;;10.82;8.35;;;;;;;;;;4986558;28;20422;-58
2021/08/20 11:17:47;;;;;;;9.35;8.45;;;;;;;;;;4986751;28;20183;-57
2021/08/20 11:20:26;;;;;;;12.95;8.65;;;;;;;;;;4983625;28;20671;-57
2021/08/20 11:23:10;;;;;;;11.57;9.27;;;;;;;;;;4980827;28;20685;-57
2021/08/20 11:25:35;;;;;;;9.23;8.30;;;;;;;;;;4993128;28;20217;-57
2021/08/20 11:28:02;;;;;;;7.65;6.90;;;;;;;;;;4970623;28;20228;-57
2021/08/20 11:30:27;;;;;;;7.53;6.80;;;;;;;;;;4970955;28;20595;-57
2021/08/20 11:33:06;;;;;;;12.20;7.20;;;;;;;;;;4980031;28;20238;-57
2021/08/20 11:35:31;;;;;;;7.18;6.47;;;;;;;;;;4984998;28;20164;-57
2021/08/20 11:37:57;;;;;;;6.65;6.00;;;;;;;;;;4989835;28;20183;-57
2021/08/20 11:40:22;;;;;;;7.35;6.65;;;;;;;;;;4982968;28;20210;-56
2021/08/20 11:43:07;;;;;;;8.02;6.00;;;;;;;;;;4992042;28;20623;-57
2021/08/20 11:45:32;;;;;;;10.27;6.85;;;;;;;;;;4986787;28;20188;-56
2021/08/20 11:47:58;;;;;;;7.88;5.90;;;;;;;;;;4978905;28;20218;-57
2021/08/20 11:50:24;;;;;;;6.70;5.55;;;;;;;;;;4977323;28;20180;-58
2021/08/20 11:52:49;;;;;;;7.60;5.63;;;;;;;;;;4975554;28;20231;-56
2021/08/20 11:55:18;;;;;;;6.15;5.30;;;;;;;;;;4975600;28;20185;-57
2021/08/20 11:57:44;;;;;;;7.85;6.03;;;;;;;;;;4975281;28;20292;-57
2021/08/20 12:00:09;;;;;;;8.45;7.00;;;;;;;;;;4972987;28;20664;-58
2021/08/20 12:02:35;;;;;;;5.45;4.95;;;;;;;;;;4975024;28;20218;-56
2021/08/20 12:05:16;;;;;;;7.68;5.47;;;;;;;;;;4984262;28;20187;-57
2021/08/20 12:07:42;;;;;;;5.32;4.82;;;;;;;;;;4991546;28;20254;-59
2021/08/20 12:10:08;;;;;;;7.22;5.93;;;;;;;;;;4978491;28;20177;-57
2021/08/20 12:12:36;;;;;;;11.13;6.05;;;;;;;;;;4992214;28;20213;-59
2021/08/20 12:15:01;;;;;;;6.22;5.63;;;;;;;;;;4992273;28;20271;-57
2021/08/20 12:17:31;;;;;;;9.00;5.60;;;;;;;;;;4991247;28;20602;-57
2021/08/20 12:19:56;;;;;;;9.63;6.10;;;;;;;;;;4983629;28;20774;-56
2021/08/20 12:22:32;;;;;;;7.55;5.90;;;;;;;;;;4980457;28;20210;-57
2021/08/20 12:24:57;;;;;;;6.43;5.60;;;;;;;;;;4990434;28;20176;-57
2021/08/20 12:27:23;;;;;;;5.50;4.70;;;;;;;;;;4991877;28;20671;-57
2021/08/20 12:29:57;;;;;;;6.05;4.97;;;;;;;;;;4985443;28;20431;-55
2021/08/20 12:32:23;;;;;;;6.13;4.85;;;;;;;;;;4977900;28;20210;-54
2021/08/20 12:34:55;;;;;;;6.00;4.88;;;;;;;;;;4982545;28;20203;-56
2021/08/20 12:37:20;;;;;;;6.22;4.50;;;;;;;;;;4982108;28;20287;-56
2021/08/20 12:39:46;;;;;;;5.40;4.60;;;;;;;;;;4990022;28;20196;-55
2021/08/20 12:42:25;;;;;;;4.97;4.23;;;;;;;;;;4991136;28;20948;-55
2021/08/20 12:45:09;;;;;;;5.82;4.75;;;;;;;;;;4996996;28;20428;-55
2021/08/20 12:47:34;;;;;;;5.68;4.68;;;;;;;;;;4984386;28;20778;-56
2021/08/20 12:50:00;;;;;;;4.90;4.35;;;;;;;;;;4982572;28;20214;-56
2021/08/20 12:52:26;;;;;;;9.23;4.25;;;;;;;;;;4990784;28;20207;-56
2021/08/20 12:54:51;;;;;;;5.00;4.13;;;;;;;;;;4997023;28;20176;-55
2021/08/20 12:57:19;;;;;;;5.55;4.43;;;;;;;;;;4987379;28;20172;-56
2021/08/20 12:59:45;;;;;;;7.25;5.43;;;;;;;;;;4987630;28;20511;-53
2021/08/20 13:02:10;;;;;;;6.07;4.82;;;;;;;;;;4987075;28;20759;-54
2021/08/20 13:04:35;;;;;;;6.05;4.72;;;;;;;;;;4998573;28;20223;-56
2021/08/20 13:07:00;;;;;;;5.87;5.20;;;;;;;;;;4990687;28;20204;-55
2021/08/20 13:09:26;;;;;;;6.00;4.95;;;;;;;;;;4992038;28;20408;-56
2021/08/20 13:11:51;;;;;;;7.93;4.83;;;;;;;;;;4992933;28;20184;-55
2021/08/20 13:14:16;;;;;;;6.18;4.35;;;;;;;;;;4989224;28;20554;-55
2021/08/20 13:16:41;;;;;;;5.88;4.60;;;;;;;;;;4990111;28;20264;-54
2021/08/20 13:19:06;;;;;;;5.73;4.60;;;;;;;;;;4983604;28;20200;-53
2021/08/20 13:21:32;;;;;;;5.07;4.57;;;;;;;;;;4981364;28;20649;-57
2021/08/20 13:23:57;;;;;;;7.07;4.70;;;;;;;;;;4990717;28;20466;-55
2021/08/20 13:26:22;;;;;;;5.80;4.13;;;;;;;;;;4991531;28;20234;-54
2021/08/20 13:28:47;;;;;;;8.52;4.30;;;;;;;;;;4979231;28;20443;-53
2021/08/20 13:31:12;;;;;;;12.32;5.00;;;;;;;;;;4987137;28;20191;-55
2021/08/20 13:33:38;;;;;;;5.55;4.82;;;;;;;;;;4988222;28;20245;-54
2021/08/20 13:36:03;;;;;;;7.22;4.82;;;;;;;;;;4984858;28;20172;-55
2021/08/20 13:38:29;;;;;;;6.32;4.40;;;;;;;;;;4988333;28;20270;-53
2021/08/20 13:40:54;;;;;;;5.65;3.70;;;;;;;;;;4988138;28;20535;-54
2021/08/20 13:43:19;;;;;;;5.18;3.80;;;;;;;;;;4988729;28;20279;-54
2021/08/20 13:45:46;;;;;;;5.80;3.88;;;;;;;;;;4990228;28;20184;-55
2021/08/20 13:48:12;;;;;;;4.15;3.75;;;;;;;;;;4988309;28;20247;-55
2021/08/20 13:50:37;;;;;;;5.40;4.32;;;;;;;;;;4987337;28;20278;-54
2021/08/20 13:53:03;;;;;;;7.95;4.18;;;;;;;;;;4989396;28;20200;-55
2021/08/20 13:55:29;;;;;;;5.93;4.32;;;;;;;;;;4988846;28;20702;-55
2021/08/20 13:57:54;;;;;;;4.93;3.72;;;;;;;;;;4989437;28;20652;-55
2021/08/20 14:00:19;;;;;;;6.55;4.05;;;;;;;;;;4988375;28;20203;-54
2021/08/20 14:02:44;;;;;;;4.40;3.45;;;;;;;;;;4990644;28;20236;-55
2021/08/20 14:05:09;;;;;;;6.70;3.43;;;;;;;;;;4983332;28;20204;-55
2021/08/20 14:07:35;;;;;;;3.80;3.45;;;;;;;;;;4986220;28;20463;-55
2021/08/20 14:10:01;;;;;;;6.72;3.10;;;;;;;;;;4990208;28;20226;-55
2021/08/20 14:12:26;;;;;;;4.45;3.08;;;;;;;;;;4984924;28;20224;-55
2021/08/20 14:14:51;;;;;;;7.97;2.90;;;;;;;;;;4970885;28;20188;-54
2021/08/20 14:17:17;;;;;;;4.23;3.17;;;;;;;;;;4971608;28;20172;-56
2021/08/20 14:19:42;;;;;;;3.47;2.70;;;;;;;;;;4980811;28;20446;-55